Time;durP1;ratioP1;P1;durP2;ratioP2;P2;SDS_P1;SDS_P2;PMS_P1;PMS_P2;Temp;Humidity;BMP_temperature;BMP_pressure;BME280_temperature;BME280_humidity;BME280_pressure;Samples;Min_cycle;Max_cycle;Signal;HPM_P1;HPM_P2
2022/09/21 00:01:13;;;;;;;3.30;2.10;;;7.40;98.00;;;;;;5071484;28;20453;-66
2022/09/21 00:03:42;;;;;;;1.90;1.47;;;7.40;98.00;;;;;;5071359;28;20486;-66
2022/09/21 00:06:19;;;;;;;2.70;1.93;;;7.20;98.00;;;;;;5071509;28;20464;-67
2022/09/21 00:08:47;;;;;;;1.93;1.63;;;7.30;98.00;;;;;;5071635;28;20492;-66
2022/09/21 00:11:15;;;;;;;3.90;1.80;;;7.40;98.00;;;;;;5071649;28;20482;-66
2022/09/21 00:13:46;;;;;;;2.90;1.80;;;7.30;98.00;;;;;;5071424;28;20479;-65
2022/09/21 00:16:15;;;;;;;1.77;1.30;;;7.30;98.00;;;;;;5071569;28;20834;-66
2022/09/21 00:18:43;;;;;;;3.77;2.00;;;7.40;98.00;;;;;;5071199;28;20882;-66
2022/09/21 00:21:12;;;;;;;2.90;2.17;;;7.30;98.00;;;;;;5071229;28;21012;-66
2022/09/21 00:23:41;;;;;;;1.97;1.57;;;7.30;98.00;;;;;;5071082;28;20484;-66
2022/09/21 00:26:10;;;;;;;1.40;1.30;;;7.30;98.00;;;;;;5071120;28;20467;-66
2022/09/21 00:28:39;;;;;;;3.53;2.50;;;7.60;98.00;;;;;;5071161;28;20460;-66
2022/09/21 00:31:08;;;;;;;4.53;2.10;;;7.40;98.00;;;;;;5071176;28;20468;-67
2022/09/21 00:33:36;;;;;;;2.73;1.80;;;7.40;98.00;;;;;;5071001;28;20811;-67
2022/09/21 00:36:06;;;;;;;1.60;1.37;;;7.20;98.00;;;;;;5071085;28;20475;-66
2022/09/21 00:38:35;;;;;;;2.27;1.90;;;7.30;98.00;;;;;;5071228;28;20470;-67
2022/09/21 00:41:02;;;;;;;1.80;1.50;;;7.20;98.00;;;;;;5071058;28;20491;-66
2022/09/21 00:43:29;;;;;;;1.60;1.50;;;7.20;98.00;;;;;;5052997;28;20538;-67
2022/09/21 00:46:03;;;;;;;1.27;1.17;;;7.20;98.00;;;;;;5071140;28;20464;-66
2022/09/21 00:48:30;;;;;;;1.63;1.23;;;7.30;98.00;;;;;;5070981;28;20462;-66
2022/09/21 00:51:02;;;;;;;3.13;1.80;;;7.20;98.00;;;;;;5070866;28;20502;-66
2022/09/21 00:53:32;;;;;;;2.53;1.60;;;7.10;98.00;;;;;;5070979;28;20449;-66
2022/09/21 00:56:01;;;;;;;1.80;1.43;;;7.10;98.00;;;;;;5070710;28;20515;-66
2022/09/21 00:58:33;;;;;;;2.70;1.40;;;7.00;98.00;;;;;;5071083;28;20546;-67
2022/09/21 01:01:01;;;;;;;1.20;1.20;;;7.00;98.00;;;;;;5070691;28;20455;-66
2022/09/21 01:03:31;;;;;;;2.53;1.80;;;7.10;98.00;;;;;;5071056;28;20492;-67
2022/09/21 01:05:58;;;;;;;1.70;1.40;;;7.10;98.00;;;;;;5071641;28;20470;-66
2022/09/21 01:08:27;;;;;;;1.70;1.57;;;7.10;98.00;;;;;;5074926;28;20853;-66
2022/09/21 01:11:12;;;;;;;2.90;1.37;;;7.20;98.00;;;;;;5074782;28;20462;-67
2022/09/21 01:13:51;;;;;;;1.60;1.23;;;7.10;98.00;;;;;;5074709;28;20885;-66
2022/09/21 01:16:26;;;;;;;2.80;1.60;;;6.90;98.00;;;;;;5074797;28;20535;-66
2022/09/21 01:19:02;;;;;;;2.83;1.73;;;6.80;98.00;;;;;;5056818;28;20867;-66
2022/09/21 01:21:33;;;;;;;1.87;1.57;;;6.80;98.00;;;;;;5074675;28;20454;-66
2022/09/21 01:24:32;;;;;;;2.17;1.70;;;6.70;98.00;;;;;;5056925;28;20483;-66
2022/09/21 01:27:24;;;;;;;1.70;1.23;;;6.60;98.00;;;;;;5071966;28;20989;-66
2022/09/21 01:29:56;;;;;;;1.37;1.20;;;6.40;98.00;;;;;;5074314;28;20555;-66
2022/09/21 01:32:27;;;;;;;2.73;1.90;;;6.40;98.00;;;;;;5074095;28;20470;-66
2022/09/21 01:34:59;;;;;;;2.27;1.60;;;6.50;98.00;;;;;;5074084;28;21287;-66
2022/09/21 01:37:34;;;;;;;2.57;1.93;;;6.60;98.00;;;;;;5056988;28;20457;-66
2022/09/21 01:40:11;;;;;;;2.00;1.60;;;6.70;98.00;;;;;;5073885;28;20464;-67
2022/09/21 01:42:42;;;;;;;2.17;1.50;;;6.70;98.00;;;;;;5056683;28;20522;-66
2022/09/21 01:45:16;;;;;;;1.40;1.40;;;6.70;98.00;;;;;;5056286;28;20541;-66
2022/09/21 01:47:46;;;;;;;2.10;1.60;;;6.70;98.00;;;;;;5074009;28;20933;-67
2022/09/21 01:50:17;;;;;;;3.87;2.00;;;6.60;98.00;;;;;;5074073;28;20549;-67
2022/09/21 01:52:49;;;;;;;2.60;1.73;;;6.60;98.00;;;;;;5056820;28;20979;-66
2022/09/21 01:55:21;;;;;;;2.30;1.73;;;6.70;98.00;;;;;;5073911;28;20858;-66
2022/09/21 01:57:55;;;;;;;2.20;1.93;;;6.80;98.00;;;;;;5073740;28;20532;-67
2022/09/21 02:00:26;;;;;;;1.97;1.70;;;6.90;98.00;;;;;;5074422;28;20453;-66
2022/09/21 02:02:58;;;;;;;3.37;1.80;;;6.90;98.00;;;;;;5074656;28;20458;-67
2022/09/21 02:05:28;;;;;;;2.60;1.83;;;6.80;98.00;;;;;;5073634;28;20494;-66
2022/09/21 02:07:57;;;;;;;3.20;2.40;;;6.80;98.00;;;;;;5075044;28;20538;-66
2022/09/21 02:10:31;;;;;;;2.07;1.60;;;6.80;98.00;;;;;;5074488;28;20946;-66
2022/09/21 02:13:02;;;;;;;2.77;2.03;;;6.80;98.00;;;;;;5073893;28;20469;-66
2022/09/21 02:15:40;;;;;;;2.90;1.47;;;6.80;98.00;;;;;;5073583;28;20458;-66
2022/09/21 02:18:15;;;;;;;3.77;2.00;;;6.70;98.00;;;;;;5072362;28;20458;-66
2022/09/21 02:20:49;;;;;;;2.07;1.57;;;6.70;98.00;;;;;;5073368;28;20460;-66
2022/09/21 02:23:23;;;;;;;2.03;1.53;;;6.80;98.00;;;;;;5073404;28;20464;-66
2022/09/21 02:25:59;;;;;;;2.60;1.90;;;6.80;98.00;;;;;;5073539;28;20557;-66
2022/09/21 02:28:35;;;;;;;1.83;1.67;;;6.80;98.00;;;;;;5073276;28;20465;-66
2022/09/21 02:31:12;;;;;;;2.20;1.60;;;6.70;98.00;;;;;;5073062;28;20871;-66
2022/09/21 02:33:52;;;;;;;1.80;1.63;;;6.70;98.00;;;;;;5073715;28;20633;-66
2022/09/21 02:36:27;;;;;;;3.00;2.03;;;6.70;98.00;;;;;;5073264;28;20459;-66
2022/09/21 02:39:04;;;;;;;3.40;2.10;;;6.60;98.00;;;;;;5073031;28;20463;-66
2022/09/21 02:41:38;;;;;;;1.77;1.70;;;6.60;98.00;;;;;;5055065;28;20799;-66
2022/09/21 02:44:11;;;;;;;1.90;1.53;;;6.50;98.00;;;;;;5072720;28;20573;-66
2022/09/21 02:46:43;;;;;;;1.90;1.60;;;6.30;98.00;;;;;;5053947;28;20815;-66
2022/09/21 02:49:16;;;;;;;1.60;1.47;;;6.20;98.00;;;;;;5072944;28;20473;-66
2022/09/21 02:51:47;;;;;;;1.57;1.23;;;6.10;98.00;;;;;;5072813;28;20951;-66
2022/09/21 02:54:17;;;;;;;2.50;2.17;;;6.20;98.00;;;;;;5072627;28;20465;-66
2022/09/21 02:56:48;;;;;;;2.03;1.50;;;6.20;98.00;;;;;;5072596;28;20460;-66
2022/09/21 02:59:16;;;;;;;1.77;1.50;;;6.10;98.00;;;;;;5072593;28;20485;-66
2022/09/21 03:01:45;;;;;;;2.60;1.67;;;6.10;98.00;;;;;;5072825;28;20454;-66
2022/09/21 03:04:12;;;;;;;1.50;1.37;;;6.10;98.00;;;;;;5072249;28;20496;-66
2022/09/21 03:06:40;;;;;;;2.33;1.97;;;6.10;98.00;;;;;;5072623;28;20804;-67
2022/09/21 03:09:07;;;;;;;1.43;1.17;;;6.10;98.00;;;;;;5072520;28;20572;-66
2022/09/21 03:11:34;;;;;;;2.17;1.70;;;6.10;98.00;;;;;;5072622;28;20460;-66
2022/09/21 03:14:04;;;;;;;1.83;1.73;;;6.10;98.00;;;;;;5072516;28;20453;-66
2022/09/21 03:16:31;;;;;;;2.33;1.80;;;6.10;98.00;;;;;;5071863;28;20812;-66
2022/09/21 03:19:00;;;;;;;3.77;1.90;;;6.10;98.00;;;;;;5072053;28;20454;-66
2022/09/21 03:21:28;;;;;;;2.90;1.83;;;6.30;98.00;;;;;;5072211;28;20459;-66
2022/09/21 03:23:55;;;;;;;1.60;1.30;;;6.50;98.00;;;;;;5072170;28;20480;-66
2022/09/21 03:26:23;;;;;;;8.43;1.87;;;6.70;98.00;;;;;;5072042;28;20469;-66
2022/09/21 03:28:51;;;;;;;5.83;1.83;;;6.90;98.00;;;;;;5071539;28;20461;-66
2022/09/21 03:31:18;;;;;;;4.90;2.03;;;7.00;98.00;;;;;;5071867;28;20467;-66
2022/09/21 03:33:45;;;;;;;2.20;1.73;;;6.80;98.00;;;;;;5053975;28;20453;-67
2022/09/21 03:36:14;;;;;;;3.30;1.80;;;6.70;98.00;;;;;;5071731;28;20456;-66
2022/09/21 03:38:41;;;;;;;2.80;1.87;;;6.60;98.00;;;;;;5071781;28;20541;-66
2022/09/21 03:41:08;;;;;;;1.70;1.60;;;6.70;98.00;;;;;;5071833;28;20451;-66
2022/09/21 03:43:36;;;;;;;3.17;1.73;;;6.60;98.00;;;;;;5054013;28;20816;-66
2022/09/21 03:46:02;;;;;;;1.93;1.33;;;6.70;98.00;;;;;;5071433;28;20459;-66
2022/09/21 03:48:31;;;;;;;3.33;1.90;;;7.00;98.00;;;;;;5071747;28;20961;-66
2022/09/21 03:50:58;;;;;;;12.13;2.60;;;7.10;98.00;;;;;;5053901;28;20869;-66
2022/09/21 03:53:27;;;;;;;2.83;1.53;;;7.10;98.00;;;;;;5071719;28;20846;-66
2022/09/21 03:55:54;;;;;;;1.83;1.53;;;7.20;98.00;;;;;;5071314;28;20978;-66
2022/09/21 03:58:22;;;;;;;2.00;1.60;;;7.30;98.00;;;;;;5071396;28;20511;-66
2022/09/21 04:00:49;;;;;;;2.37;1.70;;;7.30;98.00;;;;;;5053285;28;21019;-66
2022/09/21 04:03:17;;;;;;;4.20;1.83;;;7.40;98.00;;;;;;5071456;28;20458;-66
2022/09/21 04:05:44;;;;;;;2.10;1.63;;;7.10;98.00;;;;;;5071427;28;20481;-66
2022/09/21 04:08:11;;;;;;;1.20;1.20;;;7.00;98.00;;;;;;5071605;28;20518;-66
2022/09/21 04:10:41;;;;;;;2.43;2.00;;;7.00;98.00;;;;;;5053701;28;20450;-67
2022/09/21 04:13:09;;;;;;;3.13;2.20;;;7.00;98.00;;;;;;5071508;28;20553;-66
2022/09/21 04:15:36;;;;;;;4.23;1.70;;;7.10;98.00;;;;;;5071223;28;20466;-66
2022/09/21 04:18:04;;;;;;;2.50;1.40;;;7.10;98.00;;;;;;5071473;28;20506;-66
2022/09/21 04:20:31;;;;;;;1.97;1.70;;;7.00;98.00;;;;;;5071064;28;20456;-66
2022/09/21 04:22:58;;;;;;;2.13;1.67;;;7.20;98.00;;;;;;5071080;28;20458;-66
2022/09/21 04:25:25;;;;;;;2.43;1.77;;;7.20;98.00;;;;;;5053371;28;20480;-66
2022/09/21 04:27:54;;;;;;;2.90;1.77;;;7.30;98.00;;;;;;5053638;28;20463;-66
2022/09/21 04:30:21;;;;;;;2.53;1.83;;;7.10;98.00;;;;;;5053255;28;20976;-66
2022/09/21 04:32:48;;;;;;;2.83;1.80;;;7.00;98.00;;;;;;5070912;28;20460;-66
2022/09/21 04:35:15;;;;;;;2.03;1.67;;;6.90;98.00;;;;;;5070931;28;20455;-66
2022/09/21 04:37:44;;;;;;;1.80;1.50;;;6.80;98.00;;;;;;5070880;28;20454;-66
2022/09/21 04:40:11;;;;;;;1.30;1.17;;;6.80;98.00;;;;;;5036653;28;20725;-66
2022/09/21 04:42:38;;;;;;;1.80;1.60;;;6.90;98.00;;;;;;5075287;28;20453;-66
2022/09/21 04:45:08;;;;;;;1.60;1.30;;;6.80;98.00;;;;;;5075019;28;20486;-66
2022/09/21 04:47:35;;;;;;;3.33;1.63;;;6.70;98.00;;;;;;5075507;28;20460;-66
2022/09/21 04:50:02;;;;;;;3.03;1.30;;;6.60;98.00;;;;;;5075226;28;20511;-66
2022/09/21 04:52:29;;;;;;;3.17;2.00;;;6.60;98.00;;;;;;5057320;28;20978;-66
2022/09/21 04:54:57;;;;;;;1.90;1.40;;;6.60;98.00;;;;;;5057074;28;20457;-66
2022/09/21 04:57:24;;;;;;;1.40;1.10;;;6.60;98.00;;;;;;5074959;28;20457;-66
2022/09/21 05:02:33;;;;;;;1.63;1.33;;;6.60;98.00;;;;;;5059140;28;20472;-66
2022/09/21 05:05:00;;;;;;;2.17;1.40;;;6.60;98.00;;;;;;5074653;28;20477;-66
2022/09/21 05:07:28;;;;;;;2.00;1.30;;;6.60;98.00;;;;;;5075018;28;20966;-67
2022/09/21 05:10:03;;;;;;;1.30;1.20;;;6.50;98.00;;;;;;5057293;28;20453;-66
2022/09/21 05:12:31;;;;;;;1.50;1.20;;;6.50;98.00;;;;;;5074710;28;20460;-66
2022/09/21 05:14:58;;;;;;;1.60;1.50;;;6.50;98.00;;;;;;5039879;28;20513;-66
2022/09/21 05:17:25;;;;;;;1.80;1.00;;;6.70;98.00;;;;;;5074419;28;20460;-66
2022/09/21 05:19:54;;;;;;;2.97;1.73;;;6.80;98.00;;;;;;5074549;28;20448;-66
2022/09/21 05:22:22;;;;;;;2.13;1.50;;;6.60;98.00;;;;;;5074619;28;20471;-66
2022/09/21 05:24:49;;;;;;;2.50;1.57;;;6.50;98.00;;;;;;5074130;28;20488;-66
2022/09/21 05:27:16;;;;;;;1.43;1.27;;;6.60;98.00;;;;;;5074237;28;20455;-66
2022/09/21 05:29:44;;;;;;;1.77;1.30;;;6.70;98.00;;;;;;5074098;28;20459;-66
2022/09/21 05:32:20;;;;;;;2.37;1.77;;;6.70;98.00;;;;;;5187615;22;20489;-87
2022/09/21 05:35:05;;;;;;;3.13;1.63;;;6.80;98.00;;;;;;5055659;28;20481;-87
2022/09/21 05:37:52;;;;;;;1.33;1.30;;;6.80;98.00;;;;;;5054596;28;20515;-87
2022/09/21 05:40:19;;;;;;;1.30;1.30;;;6.80;98.00;;;;;;5055118;28;20469;-87
2022/09/21 05:42:48;;;;;;;2.67;1.57;;;6.70;98.00;;;;;;5055702;28;20484;-87
2022/09/21 05:45:17;;;;;;;1.77;1.40;;;6.50;98.00;;;;;;5055868;28;20480;-88
2022/09/21 05:47:54;;;;;;;4.10;1.70;;;6.60;98.00;;;;;;5055231;28;20475;-87
2022/09/21 05:50:40;;;;;;;2.43;1.77;;;6.60;98.00;;;;;;5055726;28;21113;-88
2022/09/21 05:53:25;;;;;;;3.63;1.50;;;6.70;98.00;;;;;;5055719;28;20549;-88
2022/09/21 05:55:56;;;;;;;1.97;1.70;;;6.90;98.00;;;;;;5055783;28;20438;-87
2022/09/21 05:58:31;;;;;;;3.37;1.70;;;7.00;98.00;;;;;;5054893;28;20425;-88
2022/09/21 06:01:19;;;;;;;2.83;1.83;;;7.00;98.00;;;;;;5055991;28;20456;-88
2022/09/21 06:03:48;;;;;;;3.90;1.80;;;7.10;98.00;;;;;;5055319;28;20458;-87
2022/09/21 06:06:17;;;;;;;3.00;2.13;;;7.10;98.00;;;;;;5055528;28;20561;-87
2022/09/21 06:08:44;;;;;;;2.60;2.10;;;6.80;98.00;;;;;;5055444;28;20464;-87
2022/09/21 06:11:11;;;;;;;2.13;2.03;;;6.80;98.00;;;;;;5055787;28;20527;-88
2022/09/21 06:13:39;;;;;;;3.43;1.90;;;6.80;98.00;;;;;;5055936;28;20455;-88
2022/09/21 06:16:08;;;;;;;3.83;2.70;;;7.00;98.00;;;;;;5054900;28;20462;-87
2022/09/21 06:18:37;;;;;;;4.00;1.73;;;7.10;98.00;;;;;;5055129;28;21152;-88
2022/09/21 06:21:05;;;;;;;2.47;1.80;;;7.20;98.00;;;;;;5054990;28;20506;-88
2022/09/21 06:23:33;;;;;;;2.23;1.80;;;7.20;98.00;;;;;;5055297;28;20468;-88
2022/09/21 06:26:00;;;;;;;2.03;1.63;;;7.20;98.00;;;;;;5055056;28;20473;-88
2022/09/21 06:28:28;;;;;;;3.37;2.70;;;7.10;98.00;;;;;;5051588;28;20850;-87
2022/09/21 06:30:57;;;;;;;1.97;1.67;;;7.10;98.00;;;;;;5058432;28;20528;-87
2022/09/21 06:33:24;;;;;;;2.17;1.43;;;7.10;98.00;;;;;;5053728;28;20511;-87
2022/09/21 06:35:56;;;;;;;2.30;2.00;;;7.10;98.00;;;;;;5052457;28;20818;-86
2022/09/21 06:38:23;;;;;;;1.53;1.43;;;7.10;98.00;;;;;;5051973;28;20458;-90
2022/09/21 06:47:30;;;;;;;1.47;1.40;;;7.40;98.00;;;;;;4988427;28;20455;-89
2022/09/21 06:49:58;;;;;;;2.07;1.63;;;7.40;98.00;;;;;;5052183;28;20466;-89
2022/09/21 06:52:25;;;;;;;2.03;1.67;;;7.50;98.00;;;;;;5054022;28;20478;-88
2022/09/21 06:54:52;;;;;;;1.50;1.40;;;7.50;98.00;;;;;;5054112;28;20460;-88
2022/09/21 06:57:20;;;;;;;2.43;1.60;;;7.40;98.00;;;;;;5053514;28;20461;-89
2022/09/21 06:59:48;;;;;;;2.57;1.40;;;7.40;98.00;;;;;;5054060;28;20790;-88
2022/09/21 07:02:15;;;;;;;3.30;1.63;;;7.40;98.00;;;;;;5054096;28;20498;-89
2022/09/21 07:04:42;;;;;;;2.47;1.40;;;7.40;98.00;;;;;;5052812;28;20494;-90
2022/09/21 07:07:11;;;;;;;1.50;1.30;;;7.50;98.00;;;;;;5053892;28;20480;-89
2022/09/21 07:09:38;;;;;;;2.70;1.87;;;7.60;98.00;;;;;;5054186;28;20461;-89
2022/09/21 07:12:08;;;;;;;4.70;2.27;;;7.30;98.00;;;;;;5054200;28;20476;-89
2022/09/21 07:14:37;;;;;;;1.33;1.30;;;7.20;98.00;;;;;;5055201;28;20699;-87
2022/09/21 07:17:05;;;;;;;2.93;1.77;;;7.10;98.00;;;;;;5053676;28;20466;-88
2022/09/21 07:19:32;;;;;;;3.43;1.67;;;7.20;98.00;;;;;;5053056;28;21012;-88
2022/09/21 07:21:59;;;;;;;2.57;1.83;;;7.50;98.00;;;;;;5052024;28;20509;-88
2022/09/21 07:24:26;;;;;;;1.97;1.50;;;7.70;98.00;;;;;;5052960;28;20501;-89
2022/09/21 07:26:53;;;;;;;2.10;1.63;;;7.90;98.00;;;;;;5052439;28;20489;-89
2022/09/21 07:29:20;;;;;;;2.63;2.10;;;8.00;98.00;;;;;;5052853;28;20474;-88
2022/09/21 07:34:30;;;;;;;2.23;1.63;;;8.00;98.00;;;;;;5051782;28;20508;-88
2022/09/21 07:36:57;;;;;;;9.33;3.07;;;8.10;98.00;;;;;;5052501;28;20784;-89
2022/09/21 07:39:24;;;;;;;4.10;1.97;;;8.20;98.00;;;;;;5052132;28;20454;-88
2022/09/21 07:41:51;;;;;;;2.47;1.83;;;8.20;98.00;;;;;;5052512;28;20471;-86
2022/09/21 07:44:19;;;;;;;4.27;2.30;;;8.20;98.00;;;;;;5052665;28;20452;-86
2022/09/21 07:46:50;;;;;;;4.60;1.60;;;8.40;98.00;;;;;;5052475;28;20487;-88
2022/09/21 07:49:17;;;;;;;4.87;2.73;;;8.50;98.00;;;;;;5052470;28;20465;-89
2022/09/21 07:51:49;;;;;;;5.20;2.63;;;8.50;98.00;;;;;;5052584;28;20975;-89
2022/09/21 07:54:16;;;;;;;1.87;1.70;;;8.80;98.00;;;;;;5053969;28;20500;-89
2022/09/21 07:59:04;;;;;;;3.27;2.17;;;8.90;98.00;;;;;;5053062;28;20458;-89
2022/09/21 07:59:31;;;;;;;3.33;2.30;;;9.10;98.00;;;;;;5053394;28;20509;-89
2022/09/21 08:02:46;;;;;;;2.63;1.83;;;9.20;98.00;;;;;;5053582;28;20582;-89
2022/09/21 08:08:08;;;;;;;1.90;1.67;;;9.50;98.00;;;;;;5052106;28;20461;-89
2022/09/21 08:10:38;;;;;;;3.10;1.60;;;9.70;98.00;;;;;;5052310;28;20963;-89
2022/09/21 08:13:06;;;;;;;2.70;1.80;;;10.00;98.00;;;;;;5052228;28;20477;-89
2022/09/21 08:15:33;;;;;;;1.97;1.90;;;10.40;98.00;;;;;;5051318;28;20457;-89
2022/09/21 08:18:01;;;;;;;2.33;2.13;;;10.70;98.00;;;;;;5051542;28;20477;-89
2022/09/21 08:20:29;;;;;;;5.07;2.00;;;11.00;98.00;;;;;;5052309;28;20492;-89
2022/09/21 08:22:56;;;;;;;4.07;2.27;;;11.40;98.00;;;;;;5051163;28;20513;-89
2022/09/21 08:25:26;;;;;;;3.23;2.67;;;11.40;98.00;;;;;;5051990;28;20584;-89
2022/09/21 08:27:59;;;;;;;3.43;2.30;;;11.50;98.00;;;;;;5051480;28;20464;-89
2022/09/21 08:30:29;;;;;;;5.20;2.30;;;11.50;98.00;;;;;;5052056;28;20952;-87
2022/09/21 08:32:57;;;;;;;3.43;2.23;;;11.60;98.00;;;;;;5051737;28;20490;-87
2022/09/21 08:35:25;;;;;;;2.77;2.53;;;11.70;98.00;;;;;;5051907;28;20478;-87
2022/09/21 08:37:55;;;;;;;2.80;2.20;;;11.70;98.00;;;;;;5051724;28;20892;-87
2022/09/21 08:40:22;;;;;;;3.07;2.03;;;11.80;98.00;;;;;;5051678;28;20982;-87
2022/09/21 08:42:59;;;;;;;1.90;1.60;;;12.00;98.00;;;;;;5051954;28;20497;-87
2022/09/21 08:45:47;;;;;;;2.67;1.73;;;12.30;98.00;;;;;;5051800;28;20512;-87
2022/09/21 08:54:47;;;;;;;3.13;2.20;;;13.10;98.00;;;;;;4918747;28;20511;-88
2022/09/21 08:57:15;;;;;;;2.83;1.73;;;13.20;98.00;;;;;;4979385;28;20855;-88
2022/09/21 09:03:30;;;;;;;2.83;1.77;;;13.30;98.00;;;;;;5050320;28;20484;-88
2022/09/21 09:06:06;;;;;;;2.73;1.93;;;13.40;98.00;;;;;;5051636;28;20485;-88
2022/09/21 09:09:20;;;;;;;2.60;1.80;;;13.80;98.00;;;;;;5052707;28;20515;-88
2022/09/21 09:12:15;;;;;;;3.00;1.50;;;14.00;98.00;;;;;;5032441;28;20675;-88
2022/09/21 09:22:01;;;;;;;1.40;1.30;;;14.70;98.00;;;;;;5042715;28;20564;-89
2022/09/21 09:30:59;;;;;;;;;;;;;;;;;;;;;
2022/09/21 09:34:12;;;;;;;1.37;1.30;;;15.70;98.00;;;;;;5054994;28;20479;-88
2022/09/21 09:36:51;;;;;;;2.27;1.50;;;16.00;98.00;;;;;;4963775;28;20578;-87
2022/09/21 09:39:31;;;;;;;1.60;1.37;;;16.30;98.00;;;;;;5055183;28;20463;-88
2022/09/21 09:42:26;;;;;;;2.23;1.50;;;16.50;98.00;;;;;;5054778;28;20585;-89
2022/09/21 09:45:33;;;;;;;1.60;1.30;;;16.50;98.00;;;;;;5055228;28;20467;-88
2022/09/21 09:48:32;;;;;;;1.40;1.30;;;16.70;98.00;;;;;;5020511;28;20792;-88
2022/09/21 09:50:59;;;;;;;1.60;1.50;;;17.00;98.00;;;;;;5054906;28;20500;-88
2022/09/21 09:53:27;;;;;;;1.53;1.30;;;17.20;98.00;;;;;;5054836;28;20477;-87
2022/09/21 09:56:05;;;;;;;1.83;1.20;;;17.40;98.00;;;;;;5054398;28;20493;-88
2022/09/21 09:58:43;;;;;;;1.63;1.20;;;17.40;98.00;;;;;;5054561;28;20868;-88
2022/09/21 10:01:45;;;;;;;2.13;1.67;;;17.60;98.00;;;;;;5054953;28;20489;-88
2022/09/21 10:04:24;;;;;;;1.47;1.30;;;17.60;97.70;;;;;;5055193;28;20474;-88
2022/09/21 10:07:00;;;;;;;1.73;1.30;;;17.60;96.70;;;;;;5054354;28;20513;-87
2022/09/21 10:09:29;;;;;;;2.43;1.53;;;17.80;98.00;;;;;;5054475;28;20460;-87
2022/09/21 10:12:01;;;;;;;1.37;1.30;;;17.90;98.00;;;;;;5054236;28;20527;-87
2022/09/21 10:14:38;;;;;;;1.40;1.30;;;17.80;98.00;;;;;;5054628;28;20579;-87
2022/09/21 10:17:27;;;;;;;2.13;1.30;;;18.00;98.00;;;;;;5054188;28;20458;-89
2022/09/21 10:20:17;;;;;;;1.60;1.30;;;18.10;96.20;;;;;;5054485;28;20866;-88
2022/09/21 10:22:56;;;;;;;1.20;1.20;;;18.00;95.50;;;;;;5054028;28;20576;-88
2022/09/21 10:25:23;;;;;;;2.63;1.57;;;17.60;96.20;;;;;;5054711;28;20583;-87
2022/09/21 10:28:37;;;;;;;1.47;1.27;;;17.70;98.00;;;;;;5054017;28;20493;-88
2022/09/21 10:34:48;;;;;;;1.50;1.23;;;18.50;97.00;;;;;;5042153;28;20523;-89
2022/09/21 10:41:18;;;;;;;2.00;1.50;;;19.20;97.00;;;;;;4937771;28;20474;-88
2022/09/21 10:54:39;;;;;;;2.33;1.50;;;20.40;89.60;;;;;;5048202;28;20483;-89
2022/09/21 11:04:05;;;;;;;2.23;1.40;;;19.40;90.60;;;;;;5038740;28;20566;-89
2022/09/21 11:06:39;;;;;;;1.40;1.23;;;18.80;93.70;;;;;;5052641;28;20489;-88
2022/09/21 11:16:33;;;;;;;2.90;1.60;;;18.60;95.70;;;;;;5042227;28;20539;-88
2022/09/21 11:19:18;;;;;;;1.20;1.20;;;19.00;93.70;;;;;;5052745;28;20458;-89
2022/09/21 11:21:56;;;;;;;1.30;1.27;;;19.30;93.20;;;;;;5052737;28;20481;-89
2022/09/21 11:34:46;;;;;;;1.50;1.40;;;20.40;87.10;;;;;;4960660;28;20579;-88
2022/09/21 11:44:48;;;;;;;1.50;1.30;;;20.10;86.80;;;;;;4964431;28;20830;-88
2022/09/21 11:47:36;;;;;;;1.73;1.30;;;19.60;88.60;;;;;;4971439;28;21034;-88
2022/09/21 11:50:48;;;;;;;1.20;1.20;;;19.10;89.90;;;;;;5011423;28;20485;-88
2022/09/21 11:53:45;;;;;;;2.30;1.37;;;18.60;90.40;;;;;;5052615;28;20488;-88
2022/09/21 11:56:35;;;;;;;1.47;1.20;;;18.30;91.60;;;;;;5046178;28;20457;-87
2022/09/21 11:59:18;;;;;;;1.30;1.20;;;17.80;91.70;;;;;;5051906;28;20962;-88
2022/09/21 12:02:05;;;;;;;1.30;1.20;;;17.70;93.30;;;;;;5051763;28;20662;-87
2022/09/21 12:04:44;;;;;;;4.10;1.50;;;17.60;94.80;;;;;;5051744;28;20464;-87
2022/09/21 12:07:26;;;;;;;1.30;1.20;;;18.30;94.20;;;;;;5051810;28;20524;-87
2022/09/21 12:10:23;;;;;;;1.80;1.50;;;19.30;91.10;;;;;;5052167;28;20469;-87
2022/09/21 12:12:57;;;;;;;1.40;1.20;;;20.10;88.60;;;;;;5052558;28;20532;-87
2022/09/21 12:15:33;;;;;;;2.40;1.30;;;20.70;86.60;;;;;;5052245;28;20469;-87
2022/09/21 12:18:07;;;;;;;1.53;1.27;;;21.30;85.60;;;;;;5052602;28;20450;-87
2022/09/21 12:20:42;;;;;;;2.40;1.40;;;21.80;82.50;;;;;;5052974;28;20915;-87
2022/09/21 12:23:17;;;;;;;1.60;1.30;;;22.30;80.80;;;;;;5052453;28;20466;-87
2022/09/21 12:25:50;;;;;;;1.90;1.40;;;22.70;81.70;;;;;;5052791;28;20458;-87
2022/09/21 12:28:24;;;;;;;1.40;1.20;;;22.90;81.80;;;;;;5052267;28;20488;-88
2022/09/21 12:30:56;;;;;;;1.90;1.30;;;23.20;80.20;;;;;;5052576;28;20446;-88
2022/09/21 12:33:32;;;;;;;1.47;1.23;;;23.50;79.30;;;;;;5052995;28;20851;-87
2022/09/21 12:36:05;;;;;;;1.40;1.30;;;23.80;78.10;;;;;;5052202;28;20946;-88
2022/09/21 12:38:39;;;;;;;1.50;1.30;;;23.90;79.10;;;;;;5052300;28;20438;-87
2022/09/21 12:41:14;;;;;;;1.50;1.40;;;23.70;77.40;;;;;;5052234;28;20455;-87
2022/09/21 12:43:46;;;;;;;1.60;1.30;;;23.90;79.20;;;;;;5052363;28;20457;-87
2022/09/21 12:46:18;;;;;;;2.10;1.30;;;24.00;77.20;;;;;;5052205;28;20485;-87
2022/09/21 12:48:45;;;;;;;1.37;1.33;;;24.20;77.50;;;;;;5052406;28;20457;-88
2022/09/21 12:51:18;;;;;;;1.83;1.47;;;24.20;76.60;;;;;;5052007;28;20884;-86
2022/09/21 12:53:47;;;;;;;1.30;1.30;;;24.00;75.70;;;;;;5052272;28;20460;-87
2022/09/21 12:56:26;;;;;;;1.50;1.20;;;24.00;76.20;;;;;;5051967;28;20507;-86
2022/09/21 12:59:17;;;;;;;1.97;1.53;;;24.30;77.10;;;;;;5051847;28;20517;-87
2022/09/21 13:01:49;;;;;;;6.60;2.00;;;24.20;76.40;;;;;;5052209;28;20485;-88
2022/09/21 13:04:42;;;;;;;1.43;1.37;;;24.10;76.60;;;;;;5055964;28;20534;-87
2022/09/21 13:07:33;;;;;;;1.50;1.40;;;23.30;76.60;;;;;;5055350;28;20870;-87
2022/09/21 13:10:07;;;;;;;1.57;1.50;;;23.40;76.90;;;;;;5056264;28;20946;-88
2022/09/21 13:12:43;;;;;;;2.10;1.43;;;23.70;76.60;;;;;;5055611;28;20565;-88
2022/09/21 13:15:16;;;;;;;1.43;1.30;;;24.20;76.60;;;;;;5055571;28;20445;-87
2022/09/21 13:17:44;;;;;;;1.50;1.23;;;24.50;74.30;;;;;;5055135;28;20856;-87
2022/09/21 13:20:18;;;;;;;3.13;1.60;;;24.90;74.10;;;;;;5056136;28;20512;-87
2022/09/21 13:22:47;;;;;;;1.40;1.20;;;24.70;74.40;;;;;;5056026;28;20974;-86
2022/09/21 13:25:22;;;;;;;1.97;1.43;;;24.60;74.10;;;;;;5055604;28;20500;-87
2022/09/21 13:28:06;;;;;;;1.50;1.30;;;24.40;75.40;;;;;;5055862;28;20477;-87
2022/09/21 13:30:39;;;;;;;1.33;1.33;;;24.60;74.50;;;;;;5056064;28;20457;-87
2022/09/21 13:33:38;;;;;;;2.23;1.60;;;24.70;73.00;;;;;;5055604;28;20490;-87
2022/09/21 13:36:25;;;;;;;1.57;1.30;;;24.30;73.00;;;;;;5055443;28;20534;-87
2022/09/21 13:39:14;;;;;;;1.40;1.33;;;23.80;73.80;;;;;;5052744;28;20989;-87
2022/09/21 13:41:41;;;;;;;1.50;1.30;;;23.30;75.60;;;;;;5055442;28;20469;-87
2022/09/21 13:44:37;;;;;;;1.70;1.43;;;23.50;74.70;;;;;;5055842;28;20938;-87
2022/09/21 13:47:04;;;;;;;1.70;1.40;;;23.60;76.20;;;;;;5054390;28;20489;-86
2022/09/21 13:49:42;;;;;;;1.37;1.30;;;22.90;75.40;;;;;;5055776;28;20449;-87
2022/09/21 13:52:27;;;;;;;2.43;1.50;;;21.90;76.50;;;;;;5055426;28;20481;-86
2022/09/21 13:54:57;;;;;;;1.87;1.40;;;21.40;78.60;;;;;;5055451;28;20448;-86
2022/09/21 13:57:31;;;;;;;1.30;1.20;;;21.90;78.30;;;;;;5054402;28;20504;-86
2022/09/21 14:00:32;;;;;;;1.30;1.20;;;22.40;77.10;;;;;;5054463;28;20469;-85
2022/09/21 14:03:02;;;;;;;2.10;1.50;;;23.10;75.60;;;;;;5054590;28;20590;-86
2022/09/21 14:05:34;;;;;;;1.60;1.40;;;23.40;72.80;;;;;;5054656;28;20472;-86
2022/09/21 14:08:04;;;;;;;1.90;1.43;;;23.50;72.90;;;;;;5054407;28;20584;-86
2022/09/21 14:10:35;;;;;;;1.90;1.47;;;23.90;72.60;;;;;;5054955;28;20529;-86
2022/09/21 14:13:06;;;;;;;1.27;1.20;;;24.10;72.10;;;;;;5053969;28;20564;-87
2022/09/21 14:15:38;;;;;;;1.50;1.37;;;24.20;72.80;;;;;;5054052;28;20458;-86
2022/09/21 14:18:21;;;;;;;1.70;1.30;;;23.80;72.40;;;;;;5053631;28;20458;-86
2022/09/21 14:21:16;;;;;;;1.73;1.30;;;22.70;73.90;;;;;;5054815;28;20535;-86
2022/09/21 14:24:24;;;;;;;1.50;1.30;;;21.60;77.20;;;;;;5054320;28;20914;-85
2022/09/21 14:26:57;;;;;;;1.63;1.40;;;21.30;78.10;;;;;;5048677;28;20477;-86
2022/09/21 14:29:28;;;;;;;1.50;1.33;;;22.10;78.30;;;;;;5067364;28;21113;-86
2022/09/21 14:32:00;;;;;;;1.90;1.60;;;23.00;75.90;;;;;;5073604;28;20985;-86
2022/09/21 14:34:34;;;;;;;1.57;1.40;;;23.90;74.00;;;;;;5073938;28;20907;-86
2022/09/21 14:37:19;;;;;;;1.30;1.30;;;24.70;73.10;;;;;;5073545;28;20597;-86
2022/09/21 14:39:49;;;;;;;2.00;1.40;;;25.00;70.40;;;;;;5074281;28;20457;-86
2022/09/21 14:42:19;;;;;;;1.77;1.67;;;25.20;69.80;;;;;;5073688;28;20502;-86
2022/09/21 14:44:50;;;;;;;1.33;1.33;;;25.30;69.50;;;;;;5073609;28;20457;-87
2022/09/21 14:47:46;;;;;;;1.87;1.30;;;25.20;67.60;;;;;;5072893;28;20492;-86
2022/09/21 14:50:32;;;;;;;1.40;1.30;;;25.10;67.90;;;;;;5074080;28;20457;-89
2022/09/21 14:53:38;;;;;;;1.67;1.23;;;24.90;67.60;;;;;;5074004;28;20586;-87
2022/09/21 14:56:29;;;;;;;1.40;1.40;;;25.20;67.80;;;;;;5052418;28;20965;-88